Time;durP1;ratioP1;P1;durP2;ratioP2;P2;SDS_P1;SDS_P2;PMS_P1;PMS_P2;Temp;Humidity;BMP_temperature;BMP_pressure;BME280_temperature;BME280_humidity;BME280_pressure;Samples;Min_cycle;Max_cycle;Signal;HPM_P1;HPM_P2
2023/09/11 00:01:34;;;;;;;6.72;3.60;;;;;;;;;;5006319;28;20034;-84
2023/09/11 00:04:00;;;;;;;11.57;3.90;;;;;;;;;;5004802;28;20111;-83
2023/09/11 00:06:26;;;;;;;8.10;4.18;;;;;;;;;;5003044;28;20660;-84
2023/09/11 00:08:52;;;;;;;6.07;3.30;;;15.10;99.90;;;;;;5004772;28;20096;-84
2023/09/11 00:11:18;;;;;;;6.78;3.08;;;;;;;;;;4994444;28;20030;-83
2023/09/11 00:13:44;;;;;;;5.97;3.45;;;;;;;;;;4997076;28;20030;-82
2023/09/11 00:16:10;;;;;;;12.73;3.70;;;;;;;;;;4997500;28;20037;-83
2023/09/11 00:18:37;;;;;;;6.88;3.70;;;15.30;99.90;;;;;;5002276;28;20026;-82
2023/09/11 00:21:03;;;;;;;9.02;3.70;;;;;;;;;;5000482;28;20026;-83
2023/09/11 00:23:29;;;;;;;7.05;3.20;;;;;;;;;;4995021;28;20027;-82
2023/09/11 00:25:55;;;;;;;6.40;3.65;;;;;;;;;;5003849;28;20026;-82
2023/09/11 00:28:21;;;;;;;9.55;4.10;;;;;;;;;;4995815;28;20034;-82
2023/09/11 00:30:47;;;;;;;8.40;3.97;;;;;;;;;;5000418;28;20616;-82
2023/09/11 00:33:13;;;;;;;11.25;3.72;;;;;;;;;;5001683;28;20041;-82
2023/09/11 00:35:44;;;;;;;7.80;4.38;;;14.80;99.90;;;;;;5000556;28;20042;-83
2023/09/11 00:38:10;;;;;;;7.35;3.75;;;;;;;;;;4994809;28;20026;-82
2023/09/11 00:40:36;;;;;;;7.25;3.85;;;;;;;;;;4998862;28;20044;-84
2023/09/11 00:43:02;;;;;;;5.15;3.50;;;;;;;;;;4998154;28;20030;-82
2023/09/11 00:45:28;;;;;;;7.43;3.78;;;;;;;;;;5005875;28;20069;-82
2023/09/11 00:47:54;;;;;;;6.70;3.47;;;;;;;;;;5006357;28;20030;-83
2023/09/11 00:50:20;;;;;;;6.18;3.65;;;;;;;;;;5002061;28;20502;-82
2023/09/11 00:52:46;;;;;;;5.80;3.28;;;15.30;99.90;;;;;;5002775;28;20041;-82
2023/09/11 00:55:12;;;;;;;7.45;4.00;;;;;;;;;;4987571;28;20026;-82
2023/09/11 00:57:38;;;;;;;6.72;4.45;;;;;;;;;;4998704;28;20037;-83
2023/09/11 01:00:06;;;;;;;11.40;3.95;;;14.90;99.90;;;;;;5000171;28;20089;-83
2023/09/11 01:02:32;;;;;;;5.85;3.28;;;;;;;;;;4994053;28;20034;-83
2023/09/11 01:04:59;;;;;;;6.72;3.40;;;14.60;99.90;;;;;;5000596;28;20722;-82
2023/09/11 01:07:25;;;;;;;8.52;3.95;;;;;;;;;;4989655;28;20056;-81
2023/09/11 01:09:51;;;;;;;5.68;3.80;;;;;;;;;;4994416;28;20121;-81
2023/09/11 01:12:17;;;;;;;5.53;3.22;;;;;;;;;;4990831;28;20114;-83
2023/09/11 01:14:43;;;;;;;5.60;3.63;;;;;;;;;;4995253;28;20113;-82
2023/09/11 01:17:31;;;;;;;6.60;4.15;;;15.00;99.90;;;;;;4999973;28;20485;-82
2023/09/11 01:20:20;;;;;;;7.65;4.30;;;14.70;99.90;;;;;;4995274;28;20022;-81
2023/09/11 01:23:20;;;;;;;6.53;4.07;;;14.30;99.90;;;;;;5006855;28;20627;-82
2023/09/11 01:25:46;;;;;;;8.38;4.38;;;;;;;;;;4998039;28;20034;-81
2023/09/11 01:28:20;;;;;;;6.90;3.78;;;;;;;;;;4995324;28;20072;-82
2023/09/11 01:30:46;;;;;;;6.30;3.33;;;;;;;;;;4994573;28;20023;-82
2023/09/11 01:33:12;;;;;;;10.75;3.67;;;;;;;;;;4991991;28;20030;-82
2023/09/11 01:35:38;;;;;;;9.75;4.53;;;;;;;;;;4995617;28;20053;-82
2023/09/11 01:38:04;;;;;;;9.95;4.13;;;;;;;;;;4999151;28;20517;-82
2023/09/11 01:40:34;;;;;;;7.13;3.90;;;14.40;99.90;;;;;;4994459;28;20017;-82
2023/09/11 01:43:04;;;;;;;7.57;3.88;;;14.60;99.90;;;;;;4999629;28;20429;-83
2023/09/11 01:45:32;;;;;;;7.65;3.40;;;14.50;99.90;;;;;;5001843;28;20060;-83
2023/09/11 01:48:00;;;;;;;6.15;3.60;;;14.50;99.90;;;;;;5000732;28;20053;-83
2023/09/11 01:50:28;;;;;;;6.55;4.13;;;14.50;99.90;;;;;;5001501;28;20515;-84
2023/09/11 01:52:55;;;;;;;6.00;3.42;;;14.80;99.90;;;;;;4988137;28;20569;-83
2023/09/11 01:55:21;;;;;;;6.35;3.45;;;;;;;;;;5000487;28;20048;-83
2023/09/11 01:57:47;;;;;;;5.57;3.70;;;;;;;;;;4993867;28;20030;-82
2023/09/11 02:00:13;;;;;;;8.65;4.20;;;14.80;99.90;;;;;;4999457;28;20021;-83
2023/09/11 02:02:39;;;;;;;6.68;4.15;;;14.50;99.90;;;;;;4994113;28;20185;-82
2023/09/11 02:05:05;;;;;;;6.70;3.92;;;;;;;;;;4997160;28;20496;-81
2023/09/11 02:07:31;;;;;;;7.68;3.47;;;;;;;;;;4997012;28;20037;-83
2023/09/11 02:09:57;;;;;;;7.75;4.10;;;;;;;;;;4995837;28;20432;-82
2023/09/11 02:12:23;;;;;;;8.85;3.80;;;;;;;;;;4999742;28;21710;-81
2023/09/11 02:14:49;;;;;;;8.80;4.22;;;;;;;;;;4993589;28;20088;-82
2023/09/11 02:17:15;;;;;;;7.97;3.80;;;;;;;;;;4992505;28;20030;-82
2023/09/11 02:19:42;;;;;;;7.15;3.90;;;;;;;;;;4995618;28;20045;-82
2023/09/11 02:22:08;;;;;;;8.30;4.43;;;;;;;;;;4995301;28;20068;-82
2023/09/11 02:24:33;;;;;;;6.15;3.95;;;;;;;;;;4997278;28;20440;-83
2023/09/11 02:26:59;;;;;;;6.75;4.03;;;;;;;;;;5000760;28;20026;-82
2023/09/11 02:29:25;;;;;;;9.27;4.18;;;;;;;;;;4995055;28;20033;-83
2023/09/11 02:31:51;;;;;;;8.05;4.35;;;;;;;;;;4996904;28;20026;-82
2023/09/11 02:34:17;;;;;;;6.90;3.33;;;;;;;;;;4994891;28;20141;-82
2023/09/11 02:36:43;;;;;;;7.80;4.30;;;;;;;;;;4991525;28;20484;-82
2023/09/11 02:39:09;;;;;;;6.32;3.63;;;;;;;;;;5000393;28;20752;-82
2023/09/11 02:41:35;;;;;;;6.80;3.97;;;;;;;;;;4997925;28;20034;-82
2023/09/11 02:44:01;;;;;;;8.45;3.72;;;;;;;;;;4998307;28;20356;-82
2023/09/11 02:46:27;;;;;;;7.43;3.65;;;;;;;;;;4995163;28;20678;-82
2023/09/11 02:48:53;;;;;;;8.02;4.43;;;;;;;;;;4998129;28;20034;-82
2023/09/11 02:51:19;;;;;;;8.00;4.00;;;;;;;;;;4995381;28;20017;-82
2023/09/11 02:53:45;;;;;;;6.82;3.33;;;;;;;;;;4993130;28;20041;-83
2023/09/11 02:56:11;;;;;;;7.20;3.65;;;;;;;;;;4995561;28;20117;-82
2023/09/11 02:58:37;;;;;;;6.85;4.65;;;;;;;;;;4997577;28;20065;-83
2023/09/11 03:01:06;;;;;;;5.47;3.63;;;14.50;99.90;;;;;;4994870;28;20080;-82
2023/09/11 03:03:32;;;;;;;7.45;4.05;;;14.30;99.90;;;;;;4993450;28;20026;-82
2023/09/11 03:05:59;;;;;;;6.28;3.70;;;14.20;99.90;;;;;;4995896;28;20042;-82
2023/09/11 03:08:25;;;;;;;14.57;4.80;;;;;;;;;;4998128;28;20084;-83
2023/09/11 03:10:51;;;;;;;6.60;4.13;;;;;;;;;;4995354;28;20034;-82
2023/09/11 03:13:17;;;;;;;6.78;3.47;;;;;;;;;;4993581;28;20153;-83
2023/09/11 03:15:43;;;;;;;5.85;3.13;;;;;;;;;;4997811;28;20065;-82
2023/09/11 03:18:09;;;;;;;6.13;3.65;;;;;;;;;;5002034;28;20449;-81
2023/09/11 03:20:35;;;;;;;7.32;3.88;;;14.20;99.90;;;;;;4996966;28;20022;-81
2023/09/11 03:23:01;;;;;;;6.55;4.05;;;;;;;;;;5004073;28;20060;-81
2023/09/11 03:25:27;;;;;;;9.15;4.50;;;;;;;;;;4999887;28;20034;-83
2023/09/11 03:27:53;;;;;;;10.38;3.83;;;14.30;99.90;;;;;;5001285;28;20467;-81
2023/09/11 03:30:19;;;;;;;7.10;3.53;;;;;;;;;;4996529;28;20052;-82
2023/09/11 03:32:45;;;;;;;11.95;4.55;;;;;;;;;;5005955;28;20136;-83
2023/09/11 03:35:11;;;;;;;11.68;4.22;;;;;;;;;;5022731;28;20014;-83
2023/09/11 03:37:37;;;;;;;10.35;4.68;;;;;;;;;;5010991;28;20058;-83
2023/09/11 03:40:07;;;;;;;9.68;3.47;;;;;;;;;;5005606;28;20034;-83
2023/09/11 03:42:34;;;;;;;6.85;4.20;;;14.10;99.90;;;;;;4993575;28;20457;-83
2023/09/11 03:45:00;;;;;;;8.05;3.85;;;13.30;99.90;;;;;;5003454;28;20042;-83
2023/09/11 03:47:26;;;;;;;6.93;3.40;;;;;;;;;;5008457;28;20039;-83
2023/09/11 03:49:52;;;;;;;5.47;3.33;;;;;;;;;;5002286;28;20037;-83
2023/09/11 03:52:18;;;;;;;5.63;3.20;;;;;;;;;;5000402;28;20057;-83
2023/09/11 03:54:44;;;;;;;7.07;2.95;;;;;;;;;;5005005;28;20062;-83
2023/09/11 03:57:10;;;;;;;5.32;3.08;;;;;;;;;;4993168;28;20520;-83
2023/09/11 03:59:36;;;;;;;5.03;2.67;;;;;;;;;;4999423;28;20034;-83
2023/09/11 04:02:02;;;;;;;4.15;2.45;;;;;;;;;;5003006;28;20052;-84
2023/09/11 04:04:28;;;;;;;7.88;2.97;;;;;;;;;;5008586;28;20034;-83
2023/09/11 04:06:54;;;;;;;6.53;2.88;;;;;;;;;;5005316;28;20053;-83
2023/09/11 04:09:20;;;;;;;7.38;2.75;;;;;;;;;;5015099;28;20030;-83
2023/09/11 04:11:45;;;;;;;5.28;2.88;;;;;;;;;;5008036;28;20029;-82
2023/09/11 04:14:11;;;;;;;5.13;2.78;;;;;;;;;;5005247;28;20554;-83
2023/09/11 04:16:37;;;;;;;4.05;2.58;;;;;;;;;;5002553;28;20512;-83
2023/09/11 04:19:03;;;;;;;4.82;2.42;;;;;;;;;;4997105;28;20409;-84
2023/09/11 04:21:29;;;;;;;4.25;2.50;;;;;;;;;;4984780;28;20049;-85
2023/09/11 04:23:55;;;;;;;8.63;3.33;;;;;;;;;;4990397;28;20053;-84
2023/09/11 04:26:21;;;;;;;4.90;3.00;;;13.80;99.90;;;;;;4996262;28;20517;-83
2023/09/11 04:28:47;;;;;;;6.72;3.60;;;14.20;99.90;;;;;;4998399;28;20034;-84
2023/09/11 04:31:13;;;;;;;7.70;3.28;;;;;;;;;;4994524;28;20030;-83
2023/09/11 04:33:40;;;;;;;11.60;4.25;;;14.20;99.90;;;;;;4991632;28;20022;-86
2023/09/11 04:36:06;;;;;;;5.15;3.30;;;;;;;;;;4992610;28;20045;-84
2023/09/11 04:38:32;;;;;;;8.60;4.03;;;;;;;;;;4997135;28;20487;-84
2023/09/11 04:40:58;;;;;;;6.93;3.55;;;;;;;;;;5001017;28;20030;-84
2023/09/11 04:43:24;;;;;;;9.10;4.38;;;;;;;;;;5002778;28;20894;-83
2023/09/11 04:45:50;;;;;;;7.85;3.75;;;;;;;;;;5008782;28;20045;-81
2023/09/11 04:48:16;;;;;;;5.47;3.25;;;;;;;;;;5005953;28;20962;-83
2023/09/11 04:50:42;;;;;;;7.53;3.95;;;13.60;99.90;;;;;;5004520;28;20038;-83
2023/09/11 04:53:08;;;;;;;10.50;2.95;;;;;;;;;;5001471;28;20032;-83
2023/09/11 04:55:34;;;;;;;4.70;3.45;;;;;;;;;;4997049;28;20042;-83
2023/09/11 04:58:00;;;;;;;8.75;3.35;;;;;;;;;;4998369;28;20038;-81
2023/09/11 05:00:26;;;;;;;7.78;3.40;;;;;;;;;;5000449;28;20109;-83
2023/09/11 05:02:58;;;;;;;6.40;3.67;;;;;;;;;;5007230;28;20037;-84
2023/09/11 05:05:25;;;;;;;4.90;3.00;;;;;;;;;;5007382;28;20377;-83
2023/09/11 05:07:51;;;;;;;9.95;3.72;;;;;;;;;;5006102;28;20496;-84
2023/09/11 05:10:18;;;;;;;6.03;3.35;;;;;;;;;;5000642;28;20038;-83
2023/09/11 05:12:44;;;;;;;6.90;3.90;;;;;;;;;;5001448;28;20021;-84
2023/09/11 05:15:10;;;;;;;5.10;2.60;;;;;;;;;;5000640;28;20113;-84
2023/09/11 05:17:36;;;;;;;15.65;3.90;;;13.70;99.90;;;;;;5008973;28;20038;-83
2023/09/11 05:20:03;;;;;;;6.03;3.33;;;;;;;;;;5019136;28;20033;-84
2023/09/11 05:22:28;;;;;;;5.95;3.55;;;13.20;99.90;;;;;;5009934;28;20050;-86
2023/09/11 05:24:55;;;;;;;6.65;3.45;;;;;;;;;;5009755;28;20058;-84
2023/09/11 05:27:21;;;;;;;7.63;3.40;;;;;;;;;;5012190;28;20033;-84
2023/09/11 05:29:48;;;;;;;5.15;3.22;;;;;;;;;;5015309;28;20026;-84
2023/09/11 05:32:14;;;;;;;24.42;4.35;;;;;;;;;;5019378;28;20033;-84
2023/09/11 05:34:40;;;;;;;6.93;3.90;;;;;;;;;;5029578;28;20066;-84
2023/09/11 05:37:06;;;;;;;7.35;3.85;;;;;;;;;;5013372;28;20028;-83
2023/09/11 05:39:32;;;;;;;5.18;3.25;;;;;;;;;;5010649;28;20033;-83
2023/09/11 05:41:58;;;;;;;18.55;3.65;;;;;;;;;;5005671;28;20033;-83
2023/09/11 05:44:24;;;;;;;5.80;3.40;;;;;;;;;;5007913;28;20508;-83
2023/09/11 05:46:50;;;;;;;6.97;4.15;;;;;;;;;;5008996;28;20049;-82
2023/09/11 05:49:16;;;;;;;6.18;3.72;;;;;;;;;;5013529;28;20520;-83
2023/09/11 05:51:42;;;;;;;6.47;3.70;;;;;;;;;;5013898;28;20229;-82
2023/09/11 05:54:08;;;;;;;11.50;3.80;;;;;;;;;;5011512;28;20034;-82
2023/09/11 05:56:34;;;;;;;10.00;4.70;;;;;;;;;;5006084;28;20558;-85
2023/09/11 05:59:00;;;;;;;7.30;4.72;;;;;;;;;;5011291;28;20113;-84
2023/09/11 06:01:27;;;;;;;8.70;4.72;;;;;;;;;;5010152;28;20037;-84
2023/09/11 06:03:53;;;;;;;5.50;3.25;;;;;;;;;;5007452;28;20030;-84
2023/09/11 06:06:19;;;;;;;8.98;4.25;;;;;;;;;;5011729;28;20420;-84
2023/09/11 06:08:45;;;;;;;6.72;4.40;;;;;;;;;;5005270;28;20033;-83
2023/09/11 06:11:10;;;;;;;8.30;4.65;;;;;;;;;;5012052;28;20516;-83
2023/09/11 06:13:37;;;;;;;9.45;4.57;;;;;;;;;;5007037;28;20508;-83
2023/09/11 06:16:03;;;;;;;6.50;4.03;;;;;;;;;;5004482;28;20056;-83
2023/09/11 06:18:29;;;;;;;8.30;4.63;;;;;;;;;;5007594;28;20022;-83
2023/09/11 06:20:55;;;;;;;9.73;5.40;;;;;;;;;;5021827;28;20080;-83
2023/09/11 06:23:21;;;;;;;6.90;4.70;;;;;;;;;;5008608;28;20022;-83
2023/09/11 06:25:47;;;;;;;6.22;3.80;;;;;;;;;;5010386;28;20019;-83
2023/09/11 06:28:13;;;;;;;8.75;5.13;;;;;;;;;;5005358;28;20054;-84
2023/09/11 06:30:39;;;;;;;9.70;5.15;;;;;;;;;;5006559;28;20033;-85
2023/09/11 06:33:05;;;;;;;9.25;5.22;;;;;;;;;;5010366;28;20026;-83
2023/09/11 06:35:31;;;;;;;9.57;5.28;;;;;;;;;;5017832;28;20060;-84
2023/09/11 06:37:57;;;;;;;10.52;5.85;;;;;;;;;;5017531;28;20014;-85
2023/09/11 06:40:23;;;;;;;9.45;5.38;;;14.90;99.90;;;;;;5015632;28;20045;-83
2023/09/11 06:42:49;;;;;;;10.07;5.32;;;;;;;;;;5009171;28;20485;-85
2023/09/11 06:45:15;;;;;;;8.68;5.45;;;;;;;;;;5011172;28;20083;-83
2023/09/11 06:47:42;;;;;;;12.98;6.18;;;;;;;;;;5009857;28;20038;-85
2023/09/11 06:50:08;;;;;;;13.50;7.03;;;;;;;;;;5016010;28;20029;-83
2023/09/11 06:52:38;;;;;;;12.40;6.18;;;;;;;;;;5013777;28;20036;-84
2023/09/11 06:55:06;;;;;;;10.32;6.18;;;16.10;99.90;;;;;;5013101;28;20029;-84
2023/09/11 06:57:32;;;;;;;13.43;6.75;;;;;;;;;;5016987;28;20034;-84
2023/09/11 06:59:58;;;;;;;14.00;6.38;;;;;;;;;;5014542;28;20053;-85
2023/09/11 07:02:24;;;;;;;9.25;5.85;;;;;;;;;;5013093;28;20033;-84
2023/09/11 07:04:50;;;;;;;10.40;5.07;;;;;;;;;;5006157;28;20045;-83
2023/09/11 07:07:16;;;;;;;10.52;6.13;;;;;;;;;;5003890;28;20050;-85
2023/09/11 07:09:42;;;;;;;17.52;6.22;;;;;;;;;;5007616;28;20026;-84
2023/09/11 07:12:08;;;;;;;12.95;6.22;;;;;;;;;;5005656;28;20460;-84
2023/09/11 07:14:34;;;;;;;14.32;6.45;;;;;;;;;;5010410;28;20115;-84
2023/09/11 07:17:02;;;;;;;10.85;7.43;;;;;;;;;;5010273;28;20045;-85
2023/09/11 07:19:28;;;;;;;15.00;7.20;;;;;;;;;;5012124;28;20049;-84
2023/09/11 07:21:54;;;;;;;11.38;6.78;;;;;;;;;;5009933;28;20498;-84
2023/09/11 07:24:20;;;;;;;13.15;7.32;;;;;;;;;;5013427;28;20054;-85
2023/09/11 07:26:46;;;;;;;11.45;7.07;;;;;;;;;;5013510;28;20073;-84
2023/09/11 07:29:12;;;;;;;12.95;6.38;;;;;;;;;;5015211;28;20029;-84
2023/09/11 07:31:37;;;;;;;11.23;6.13;;;;;;;;;;5008835;28;20034;-84
2023/09/11 07:34:03;;;;;;;12.80;6.75;;;;;;;;;;5012880;28;20022;-85
2023/09/11 07:36:30;;;;;;;12.40;7.18;;;;;;;;;;5009503;28;20040;-83
2023/09/11 07:38:56;;;;;;;16.08;6.70;;;;;;;;;;5014703;28;20038;-84
2023/09/11 07:41:21;;;;;;;12.57;6.85;;;;;;;;;;5011248;28;20022;-83
2023/09/11 07:43:50;;;;;;;12.80;7.65;;;;;;;;;;5035389;28;20049;-85
2023/09/11 07:46:21;;;;;;;12.57;6.80;;;18.70;99.90;;;;;;5035813;28;20079;-86
2023/09/11 07:48:47;;;;;;;11.77;7.05;;;;;;;;;;5025076;28;20091;-86
2023/09/11 07:51:13;;;;;;;11.85;6.60;;;;;;;;;;5020667;28;20124;-86
2023/09/11 07:53:39;;;;;;;11.80;6.32;;;;;;;;;;5016544;28;20038;-85
2023/09/11 07:56:06;;;;;;;10.45;5.82;;;18.50;99.90;;;;;;5023776;28;20033;-86
2023/09/11 07:58:32;;;;;;;9.43;5.90;;;;;;;;;;5020829;28;20022;-85
2023/09/11 08:00:58;;;;;;;11.38;6.60;;;;;;;;;;5018823;28;20511;-85
2023/09/11 08:03:24;;;;;;;14.07;6.50;;;;;;;;;;5019989;28;20034;-86
2023/09/11 08:05:53;;;;;;;11.38;5.70;;;;;;;;;;5019932;28;20041;-85
2023/09/11 08:08:19;;;;;;;17.75;7.80;;;;;;;;;;5018505;28;20033;-86
2023/09/11 08:10:44;;;;;;;10.52;6.25;;;;;;;;;;5019660;28;20072;-86
2023/09/11 08:13:10;;;;;;;8.45;6.00;;;;;;;;;;5021860;28;20122;-85
2023/09/11 08:15:36;;;;;;;12.20;5.68;;;;;;;;;;5022737;28;20029;-84
2023/09/11 08:18:02;;;;;;;11.50;5.80;;;;;;;;;;5017527;28;20054;-84
2023/09/11 08:20:28;;;;;;;8.63;5.55;;;;;;;;;;5018309;28;20026;-85
2023/09/11 08:22:54;;;;;;;13.10;5.60;;;;;;;;;;5022025;28;20084;-86
2023/09/11 08:25:20;;;;;;;7.93;5.72;;;;;;;;;;5020326;28;20048;-86
2023/09/11 08:27:47;;;;;;;8.77;5.18;;;;;;;;;;5015595;28;20499;-85
2023/09/11 08:30:13;;;;;;;10.75;4.85;;;;;;;;;;5018503;28;20032;-85
2023/09/11 08:32:40;;;;;;;9.20;4.78;;;;;;;;;;5014481;28;20578;-85
2023/09/11 08:35:06;;;;;;;7.20;4.45;;;;;;;;;;5010323;28;20523;-84
2023/09/11 08:37:32;;;;;;;6.93;4.78;;;;;;;;;;5009274;28;20037;-84
2023/09/11 08:39:58;;;;;;;9.25;4.70;;;;;;;;;;5007629;28;20038;-87
2023/09/11 08:42:24;;;;;;;10.63;5.82;;;;;;;;;;5006732;28;20026;-84
2023/09/11 08:44:50;;;;;;;10.40;5.32;;;;;;;;;;5010232;28;20030;-84
2023/09/11 08:47:17;;;;;;;9.07;4.43;;;26.90;99.90;;;;;;5010663;28;20033;-84
2023/09/11 08:49:49;;;;;;;5.75;4.38;;;29.20;99.90;;;;;;5009556;28;20078;-83
2023/09/11 08:52:16;;;;;;;6.20;3.63;;;31.00;99.90;;;;;;5008054;28;20101;-83
2023/09/11 08:54:43;;;;;;;5.25;3.25;;;32.60;98.40;;;;;;5010225;28;20022;-85
2023/09/11 08:57:14;;;;;;;5.95;3.92;;;;;;;;;;5011489;28;20026;-84
2023/09/11 08:59:44;;;;;;;7.28;4.38;;;34.20;92.30;;;;;;5011118;28;20120;-87
2023/09/11 09:02:11;;;;;;;6.60;4.13;;;35.60;87.90;;;;;;5008292;28;20042;-82
2023/09/11 09:04:38;;;;;;;11.75;3.55;;;35.20;85.30;;;;;;5006994;28;20030;-83
2023/09/11 09:07:06;;;;;;;7.10;4.15;;;34.70;84.90;;;;;;5019630;28;20033;-86
2023/09/11 09:09:33;;;;;;;8.52;2.95;;;;;;;;;;5018707;28;20494;-84
2023/09/11 09:11:59;;;;;;;8.63;4.25;;;;;;;;;;5020952;28;20050;-85
2023/09/11 09:14:28;;;;;;;7.90;4.00;;;;;;;;;;5020511;28;20034;-85
2023/09/11 09:16:54;;;;;;;5.00;3.70;;;;;;;;;;5008098;28;20034;-84
2023/09/11 09:19:20;;;;;;;6.70;4.38;;;;;;;;;;5012404;28;20518;-82
2023/09/11 09:22:06;;;;;;;7.15;3.35;;;28.70;95.20;;;;;;5008822;28;20058;-84
2023/09/11 09:24:32;;;;;;;5.80;3.38;;;;;;;;;;5011177;28;20045;-82
2023/09/11 09:26:59;;;;;;;8.10;4.43;;;27.40;97.50;;;;;;5009876;28;20410;-82
2023/09/11 09:29:25;;;;;;;4.70;2.97;;;;;;;;;;5013129;28;20022;-83
2023/09/11 09:31:52;;;;;;;5.85;3.65;;;;;;;;;;5011205;28;20455;-83
2023/09/11 09:34:18;;;;;;;7.45;3.80;;;;;;;;;;5011895;28;20034;-83
2023/09/11 09:36:51;;;;;;;6.00;3.55;;;26.40;98.00;;;;;;5002480;28;20029;-85
2023/09/11 09:39:18;;;;;;;7.82;3.47;;;26.80;99.90;;;;;;5010389;28;20033;-84
2023/09/11 09:41:58;;;;;;;6.43;3.15;;;26.80;99.90;;;;;;5007262;28;20033;-82
2023/09/11 09:44:30;;;;;;;5.53;3.13;;;27.30;99.30;;;;;;5010282;28;20041;-83
2023/09/11 09:46:56;;;;;;;9.43;4.65;;;;;;;;;;5008943;28;20034;-83
2023/09/11 09:49:22;;;;;;;5.60;3.75;;;;;;;;;;5011316;28;20488;-83
2023/09/11 09:51:49;;;;;;;7.47;4.00;;;;;;;;;;5003615;28;20030;-84
2023/09/11 09:54:15;;;;;;;5.50;2.97;;;;;;;;;;5014447;28;20036;-85
2023/09/11 09:56:41;;;;;;;7.50;3.70;;;;;;;;;;5016114;28;20029;-86
2023/09/11 09:59:07;;;;;;;4.78;3.13;;;27.60;99.90;;;;;;5019514;28;20481;-86
2023/09/11 10:01:46;;;;;;;4.95;3.45;;;26.70;99.20;;;;;;5014175;28;20392;-86
2023/09/11 10:04:15;;;;;;;5.72;2.83;;;26.60;98.10;;;;;;5017428;28;20454;-85
2023/09/11 10:06:41;;;;;;;4.70;2.55;;;;;;;;;;5019738;28;20029;-87
2023/09/11 10:09:09;;;;;;;4.50;2.90;;;27.00;98.90;;;;;;5022026;28;20037;-86
2023/09/11 10:11:37;;;;;;;6.50;2.85;;;26.90;98.60;;;;;;5020911;28;20061;-85
2023/09/11 10:14:05;;;;;;;4.43;2.42;;;26.40;99.00;;;;;;5013493;28;20083;-86
2023/09/11 10:16:31;;;;;;;5.28;3.00;;;;;;;;;;5016353;28;20038;-82
2023/09/11 10:18:58;;;;;;;5.80;2.28;;;27.00;98.90;;;;;;5015809;28;20029;-83
2023/09/11 10:21:25;;;;;;;6.25;3.22;;;;;;;;;;5009971;28;20045;-84
2023/09/11 10:23:52;;;;;;;5.47;2.50;;;27.30;97.60;;;;;;5016109;28;20162;-85
2023/09/11 10:26:23;;;;;;;8.18;3.05;;;27.50;97.70;;;;;;5015287;28;20547;-84
2023/09/11 10:28:51;;;;;;;3.95;2.50;;;27.60;97.60;;;;;;5006583;28;20080;-83
2023/09/11 10:31:21;;;;;;;6.05;3.38;;;27.40;99.90;;;;;;5010688;28;20524;-85
2023/09/11 10:33:50;;;;;;;5.85;2.70;;;27.90;96.90;;;;;;5010889;28;20026;-85
2023/09/11 10:36:21;;;;;;;3.83;2.40;;;27.50;96.60;;;;;;5012488;28;20026;-85
2023/09/11 10:38:50;;;;;;;4.15;2.38;;;27.20;96.30;;;;;;5014824;28;20033;-85
2023/09/11 10:41:15;;;;;;;4.90;2.45;;;28.00;99.90;;;;;;5012608;28;20029;-85
2023/09/11 10:43:45;;;;;;;6.03;2.38;;;27.60;99.90;;;;;;5012589;28;20026;-84
2023/09/11 10:46:23;;;;;;;3.47;2.08;;;27.70;98.40;;;;;;5009272;28;20038;-84
2023/09/11 10:48:52;;;;;;;8.50;2.35;;;28.30;99.90;;;;;;5013441;28;20034;-84
2023/09/11 10:51:18;;;;;;;3.95;2.42;;;;;;;;;;5009285;28;20469;-86
2023/09/11 10:53:47;;;;;;;5.47;2.30;;;27.70;94.90;;;;;;5017585;28;20048;-86
2023/09/11 10:56:14;;;;;;;6.88;2.00;;;;;;;;;;5016413;28;20021;-83
2023/09/11 10:58:40;;;;;;;3.17;2.00;;;;;;;;;;5014596;28;20095;-84
2023/09/11 11:01:06;;;;;;;7.47;2.42;;;;;;;;;;5015647;28;20080;-85
2023/09/11 11:03:33;;;;;;;3.72;2.10;;;27.60;91.80;;;;;;5012734;28;20129;-85
2023/09/11 11:06:00;;;;;;;5.60;2.35;;;27.70;92.20;;;;;;5014513;28;20857;-84
2023/09/11 11:08:25;;;;;;;4.55;2.53;;;28.30;99.90;;;;;;5007751;28;20030;-84
2023/09/11 11:10:55;;;;;;;3.78;2.33;;;27.70;92.80;;;;;;5015248;28;20114;-84
2023/09/11 11:13:22;;;;;;;4.32;1.85;;;;;;;;;;5003415;28;20493;-85
2023/09/11 11:15:48;;;;;;;4.32;2.30;;;;;;;;;;5007957;28;20081;-85
2023/09/11 11:18:26;;;;;;;3.65;1.95;;;28.00;99.90;;;;;;5005443;28;20026;-82
2023/09/11 11:21:08;;;;;;;3.95;2.38;;;27.70;88.10;;;;;;5005304;28;20025;-85
2023/09/11 11:23:35;;;;;;;5.82;2.75;;;27.90;90.70;;;;;;5004999;28;22195;-84
2023/09/11 11:26:06;;;;;;;16.50;5.60;;;28.40;99.90;;;;;;5011407;28;20050;-85
2023/09/11 11:28:45;;;;;;;4.38;2.65;;;28.30;99.90;;;;;;5013036;28;20093;-84
2023/09/11 11:31:18;;;;;;;4.00;2.53;;;28.70;87.60;;;;;;5021097;28;20085;-83
2023/09/11 11:33:48;;;;;;;4.93;2.20;;;27.90;87.30;;;;;;5021885;28;20582;-83
2023/09/11 11:36:16;;;;;;;4.43;2.25;;;29.40;91.40;;;;;;5020031;28;20056;-84
2023/09/11 11:38:42;;;;;;;6.38;2.25;;;27.90;90.50;;;;;;5013012;28;20030;-82
2023/09/11 11:41:09;;;;;;;13.60;4.53;;;28.90;92.10;;;;;;5019216;28;20049;-85
2023/09/11 11:43:35;;;;;;;10.93;2.78;;;;;;;;;;5012024;28;20049;-85
2023/09/11 11:46:01;;;;;;;4.45;2.58;;;;;;;;;;5016298;28;20046;-86
2023/09/11 11:48:28;;;;;;;6.53;2.50;;;;;;;;;;5017015;28;20037;-85
2023/09/11 11:50:54;;;;;;;5.22;1.95;;;28.00;99.00;;;;;;5015246;28;20036;-85
2023/09/11 11:53:22;;;;;;;4.05;1.70;;;28.90;99.90;;;;;;5016591;28;20058;-85
2023/09/11 11:55:49;;;;;;;4.70;1.75;;;29.10;88.20;;;;;;5026188;28;20052;-89
2023/09/11 11:58:15;;;;;;;6.90;2.13;;;28.20;86.20;;;;;;5031193;28;20053;-84
2023/09/11 12:00:54;;;;;;;5.05;2.17;;;28.80;89.20;;;;;;5008505;28;20030;-88
2023/09/11 12:03:20;;;;;;;3.10;1.92;;;;;;;;;;5002562;28;20030;-85
2023/09/11 12:05:46;;;;;;;4.45;1.83;;;;;;;;;;5013682;28;20045;-85
2023/09/11 12:08:13;;;;;;;8.93;2.20;;;;;;;;;;5012731;28;20057;-85
2023/09/11 12:10:48;;;;;;;8.57;2.10;;;28.40;85.80;;;;;;5012793;28;20030;-86
2023/09/11 12:13:14;;;;;;;5.68;2.03;;;;;;;;;;5008470;28;20022;-86
2023/09/11 12:15:40;;;;;;;3.80;2.05;;;;;;;;;;5013593;28;20141;-84
2023/09/11 12:18:06;;;;;;;5.93;2.17;;;;;;;;;;5009457;28;20029;-85
2023/09/11 12:20:32;;;;;;;4.55;1.98;;;;;;;;;;5010036;28;21208;-87
2023/09/11 12:23:01;;;;;;;7.93;2.10;;;29.50;86.60;;;;;;5014954;28;20053;-87
2023/09/11 12:25:27;;;;;;;5.30;1.92;;;;;;;;;;5009487;28;20025;-87
2023/09/11 12:27:53;;;;;;;3.40;1.92;;;;;;;;;;5008519;28;20039;-86
2023/09/11 12:30:19;;;;;;;4.32;1.80;;;;;;;;;;5009311;28;20550;-88
2023/09/11 12:32:45;;;;;;;4.78;2.00;;;29.60;82.30;;;;;;5011113;28;20033;-84
2023/09/11 12:35:11;;;;;;;7.53;2.00;;;;;;;;;;5013413;28;20036;-86
2023/09/11 12:37:40;;;;;;;5.82;2.28;;;28.50;84.10;;;;;;5013604;28;20037;-87
2023/09/11 12:40:09;;;;;;;5.00;2.33;;;28.80;84.60;;;;;;5012279;28;20022;-88
2023/09/11 12:42:37;;;;;;;5.18;1.92;;;28.70;97.40;;;;;;5009704;28;20026;-85
2023/09/11 12:45:04;;;;;;;5.53;1.95;;;28.40;97.20;;;;;;5010659;28;20026;-87
2023/09/11 12:47:31;;;;;;;2.72;1.60;;;28.50;81.80;;;;;;5008055;28;20030;-87
2023/09/11 12:49:57;;;;;;;4.30;2.33;;;;;;;;;;5010272;28;20026;-89
2023/09/11 12:52:22;;;;;;;7.88;1.88;;;28.60;96.30;;;;;;5012453;28;20029;-85
2023/09/11 12:54:48;;;;;;;5.72;2.42;;;;;;;;;;5012328;28;20057;-86
2023/09/11 12:57:18;;;;;;;8.73;1.90;;;29.40;82.70;;;;;;5002130;28;20029;-88
2023/09/11 12:59:44;;;;;;;6.45;1.85;;;;;;;;;;5006425;28;20089;-87
2023/09/11 13:02:11;;;;;;;3.53;1.73;;;29.20;96.20;;;;;;5009066;28;20535;-86
2023/09/11 13:04:37;;;;;;;3.67;2.08;;;;;;;;;;4999189;28;20030;-86
2023/09/11 13:07:02;;;;;;;7.00;1.83;;;;;;;;;;5009653;28;20037;-84
2023/09/11 13:09:28;;;;;;;7.30;2.08;;;;;;;;;;5001863;28;20045;-87
2023/09/11 13:11:54;;;;;;;5.15;1.90;;;;;;;;;;5004772;28;20369;-88
2023/09/11 13:14:20;;;;;;;3.03;1.48;;;;;;;;;;5003441;28;20030;-87
2023/09/11 13:16:46;;;;;;;4.50;1.67;;;;;;;;;;4990129;28;20026;-87
2023/09/11 13:19:13;;;;;;;7.13;2.13;;;;;;;;;;5000605;28;20420;-86
2023/09/11 13:21:39;;;;;;;5.18;1.75;;;;;;;;;;4997270;28;20042;-86
2023/09/11 13:24:05;;;;;;;5.45;2.45;;;29.30;94.40;;;;;;5004705;28;20022;-86
2023/09/11 13:26:33;;;;;;;6.05;2.15;;;;;;;;;;5001634;28;20041;-84
2023/09/11 13:28:59;;;;;;;7.07;1.85;;;;;;;;;;5008623;28;20041;-87
2023/09/11 13:31:24;;;;;;;6.93;1.95;;;;;;;;;;5003999;28;20030;-91
2023/09/11 13:33:50;;;;;;;7.45;1.88;;;;;;;;;;5009918;28;20041;-88
2023/09/11 13:36:16;;;;;;;3.15;2.13;;;;;;;;;;4994723;28;20026;-86
2023/09/11 13:38:42;;;;;;;2.97;1.90;;;;;;;;;;5010596;28;20489;-86
2023/09/11 13:41:08;;;;;;;4.57;1.80;;;;;;;;;;5007539;28;20105;-87
2023/09/11 13:43:34;;;;;;;5.93;1.58;;;;;;;;;;4997493;28;20033;-86
2023/09/11 13:46:00;;;;;;;4.93;1.42;;;;;;;;;;5003525;28;20402;-87
2023/09/11 13:48:26;;;;;;;9.68;2.42;;;;;;;;;;5011853;28;20415;-89
2023/09/11 13:50:52;;;;;;;13.07;1.90;;;;;;;;;;5007642;28;20060;-90
2023/09/11 13:53:18;;;;;;;3.95;2.45;;;;;;;;;;5011675;28;20054;-88
2023/09/11 13:55:44;;;;;;;5.50;1.40;;;;;;;;;;5021316;28;20034;-86
2023/09/11 13:58:11;;;;;;;6.95;1.85;;;;;;;;;;5015675;28;20045;-87
2023/09/11 14:00:37;;;;;;;5.05;1.88;;;29.00;73.60;;;;;;5012271;28;20105;-88
2023/09/11 14:03:03;;;;;;;12.52;2.90;;;;;;;;;;5010774;28;20026;-90